Time;durP1;ratioP1;P1;durP2;ratioP2;P2;SDS_P1;SDS_P2;PMS_P1;PMS_P2;Temp;Humidity;BMP_temperature;BMP_pressure;BME280_temperature;BME280_humidity;BME280_pressure;Samples;Min_cycle;Max_cycle;Signal;HPM_P1;HPM_P2
2021/11/20 00:01:16;;;;;;;10.05;4.97;;;;;;;10.52;77.65;102848.25;5038645;28;20044;-56
2021/11/20 00:03:46;;;;;;;11.82;4.88;;;;;;;10.50;77.13;102856.25;5040096;28;20504;-58
2021/11/20 00:06:13;;;;;;;14.15;5.28;;;;;;;10.49;77.73;102845.75;5039379;28;20038;-57
2021/11/20 00:08:39;;;;;;;13.15;5.45;;;;;;;10.54;78.01;102830.53;5039470;28;20029;-58
2021/11/20 00:11:07;;;;;;;9.77;5.47;;;;;;;10.58;77.51;102825.97;5043580;28;20488;-57
2021/11/20 00:13:35;;;;;;;8.75;5.18;;;;;;;10.59;77.76;102831.19;5041877;28;20022;-59
2021/11/20 00:16:02;;;;;;;8.00;5.47;;;;;;;10.54;77.80;102833.19;5047332;28;20099;-58
2021/11/20 00:18:29;;;;;;;10.70;5.57;;;;;;;10.55;77.45;102826.97;5042528;28;20033;-56
2021/11/20 00:20:58;;;;;;;9.98;5.55;;;;;;;10.50;76.91;102813.06;5046056;28;20101;-59
2021/11/20 00:23:35;;;;;;;8.85;5.75;;;;;;;10.51;77.56;102820.09;5034867;28;20034;-58
2021/11/20 00:26:03;;;;;;;13.60;5.68;;;;;;;10.53;76.98;102828.81;5038063;28;20060;-57
2021/11/20 00:28:43;;;;;;;10.00;6.07;;;;;;;10.53;76.40;102823.50;5042925;28;20040;-56
2021/11/20 00:31:13;;;;;;;9.57;6.60;;;;;;;10.48;76.58;102809.63;5035919;28;20036;-58
2021/11/20 00:33:39;;;;;;;11.07;7.07;;;;;;;10.51;75.95;102820.94;5036601;28;20029;-57
2021/11/20 00:36:05;;;;;;;14.60;6.55;;;;;;;10.51;76.27;102820.09;5035078;28;20036;-58
2021/11/20 00:38:31;;;;;;;12.48;6.90;;;;;;;10.49;75.99;102817.50;5036865;28;20489;-58
2021/11/20 00:41:00;;;;;;;9.85;6.95;;;;;;;10.48;75.82;102814.91;5038304;28;20052;-58
2021/11/20 00:43:26;;;;;;;12.20;7.35;;;;;;;10.46;76.66;102822.06;5034872;28;20128;-58
2021/11/20 00:45:52;;;;;;;13.93;7.63;;;;;;;10.45;76.11;102807.97;5037582;28;20090;-57
2021/11/20 00:48:19;;;;;;;12.38;7.80;;;;;;;10.44;76.26;102814.16;5038686;28;20026;-55
2021/11/20 00:50:48;;;;;;;13.70;8.35;;;;;;;10.38;76.46;102803.88;5035381;28;20042;-57
2021/11/20 00:53:14;;;;;;;13.70;8.55;;;;;;;10.32;76.46;102817.31;5036381;28;20033;-57
2021/11/20 00:55:40;;;;;;;16.38;9.18;;;;;;;10.34;76.65;102808.41;5036639;28;20031;-57
2021/11/20 00:58:05;;;;;;;11.80;8.32;;;;;;;10.35;76.78;102804.88;5042982;28;20033;-59
2021/11/20 01:00:37;;;;;;;15.60;9.80;;;;;;;10.37;75.65;102813.56;5034782;28;20400;-59
2021/11/20 01:03:03;;;;;;;13.35;8.77;;;;;;;10.31;76.12;102807.66;5036501;28;20040;-58
2021/11/20 01:05:28;;;;;;;18.73;9.25;;;;;;;10.31;76.05;102813.78;5043525;28;20082;-57
2021/11/20 01:07:54;;;;;;;15.50;9.68;;;;;;;10.32;75.83;102809.38;5042415;28;20637;-56
2021/11/20 01:10:23;;;;;;;11.25;8.80;;;;;;;10.33;76.03;102811.97;5042210;28;20051;-59
2021/11/20 01:12:48;;;;;;;15.02;8.70;;;;;;;10.41;75.46;102809.03;5041270;28;20029;-57
2021/11/20 01:15:19;;;;;;;13.73;9.55;;;;;;;10.37;75.47;102808.28;5042894;28;20462;-57
2021/11/20 01:17:44;;;;;;;13.95;10.10;;;;;;;10.34;75.33;102800.47;5040579;28;20037;-58
2021/11/20 01:20:11;;;;;;;16.98;10.45;;;;;;;10.32;75.64;102804.94;5040427;28;20035;-58
2021/11/20 01:22:37;;;;;;;16.92;11.43;;;;;;;10.32;76.06;102804.94;5035160;28;20046;-56
2021/11/20 01:25:03;;;;;;;14.55;11.35;;;;;;;10.32;75.92;102806.72;5042679;28;20025;-57
2021/11/20 01:27:29;;;;;;;13.30;10.60;;;;;;;10.31;75.73;102792.63;5037446;28;20120;-58
2021/11/20 01:29:54;;;;;;;16.25;10.95;;;;;;;10.32;75.69;102806.72;5034319;28;20116;-58
2021/11/20 01:32:19;;;;;;;15.13;10.82;;;;;;;10.32;75.56;102804.09;5039523;28;20371;-56
2021/11/20 01:34:46;;;;;;;18.52;12.13;;;;;;;10.29;75.40;102805.06;5045678;28;20116;-58
2021/11/20 01:37:14;;;;;;;13.68;11.40;;;;;;;10.32;75.76;102799.66;5044145;28;20067;-58
2021/11/20 01:39:42;;;;;;;15.75;12.27;;;;;;;10.34;75.19;102797.81;5039331;28;20028;-56
2021/11/20 01:42:10;;;;;;;16.83;11.40;;;;;;;10.29;76.00;102799.78;5043852;28;20079;-58
2021/11/20 01:44:48;;;;;;;17.90;12.50;;;;;;;10.33;75.15;102796.09;5036575;28;20048;-57
2021/11/20 01:47:23;;;;;;;19.52;13.00;;;;;;;10.30;74.97;102787.41;5035568;28;20029;-58
2021/11/20 01:49:53;;;;;;;19.25;12.05;;;;;;;10.33;75.28;102790.78;5040521;28;20048;-55
2021/11/20 01:52:41;;;;;;;18.27;12.05;;;;;;;10.34;75.30;102792.53;5041733;28;20037;-56
2021/11/20 01:55:22;;;;;;;18.08;12.13;;;;;;;10.35;75.37;102782.78;5027322;28;20029;-56
2021/11/20 01:57:53;;;;;;;17.85;12.88;;;;;;;10.32;75.11;102778.47;5036875;28;20035;-57
2021/11/20 02:00:42;;;;;;;17.80;12.57;;;;;;;10.33;75.93;102774.91;5040557;28;20033;-56
2021/11/20 02:03:32;;;;;;;20.15;14.50;;;;;;;10.31;75.29;102771.47;5039741;28;20477;-57
2021/11/20 02:06:21;;;;;;;18.85;14.02;;;;;;;10.25;76.42;102766.47;5037451;28;20033;-57
2021/11/20 02:08:50;;;;;;;20.83;14.57;;;;;;;10.24;76.20;102764.72;5037300;28;20057;-59
2021/11/20 02:11:20;;;;;;;21.08;13.93;;;;;;;10.24;76.38;102770.03;5044193;28;20086;-58
2021/11/20 02:13:46;;;;;;;21.00;13.07;;;;;;;10.26;76.12;102768.16;5046337;28;20377;-58
2021/11/20 02:16:21;;;;;;;20.88;14.85;;;;;;;10.23;76.39;102784.16;5046185;28;20033;-57
2021/11/20 02:18:49;;;;;;;;;;;;;;;10.23;75.48;102768.28;5043047;28;20029;-57
2021/11/20 02:21:38;;;;;;;18.35;13.38;;;;;;;10.22;74.86;102767.44;5041226;28;19963;-56
2021/11/20 02:24:03;;;;;;;16.67;12.23;;;;;;;10.23;75.39;102763.84;5042700;28;20033;-55
2021/11/20 02:26:29;;;;;;;20.57;14.70;;;;;;;10.16;75.04;102767.69;5046350;28;20051;-55
2021/11/20 02:28:56;;;;;;;19.33;12.80;;;;;;;10.23;75.94;102769.13;5042445;28;20045;-57
2021/11/20 02:31:21;;;;;;;19.98;13.90;;;;;;;10.23;74.34;102768.28;5044410;28;20061;-58
2021/11/20 02:33:48;;;;;;;16.92;12.60;;;;;;;10.22;74.89;102761.28;5037065;28;20092;-59
2021/11/20 02:36:16;;;;;;;21.83;13.25;;;;;;;10.25;74.11;102761.16;5040770;28;20038;-58
2021/11/20 02:39:07;;;;;;;17.77;13.18;;;;;;;10.18;75.00;102754.41;5044458;28;20025;-57
2021/11/20 02:41:34;;;;;;;20.58;14.20;;;;;;;10.18;74.82;102754.41;5037983;28;20029;-58
2021/11/20 02:44:03;;;;;;;19.02;13.57;;;;;;;10.13;75.42;102764.31;5041223;28;20025;-56
2021/11/20 02:46:32;;;;;;;20.02;13.65;;;;;;;10.16;74.85;102751.81;5043016;28;20036;-56
2021/11/20 02:48:58;;;;;;;17.10;12.63;;;;;;;10.18;74.63;102746.47;5043359;28;20029;-58
2021/11/20 02:51:31;;;;;;;17.13;12.98;;;;;;;10.21;74.15;102743.69;5041342;28;20473;-58
2021/11/20 02:54:00;;;;;;;18.25;12.57;;;;;;;10.14;75.04;102736.94;5040572;28;20035;-56
2021/11/20 02:56:29;;;;;;;15.18;11.82;;;;;;;10.16;74.31;102740.38;5042896;28;20028;-58
2021/11/20 02:58:55;;;;;;;17.67;12.65;;;;;;;10.14;74.98;102742.22;5040757;28;20095;-57
2021/11/20 03:01:24;;;;;;;16.00;11.10;;;;;;;10.17;73.95;102736.81;5043387;28;20064;-57
2021/11/20 03:03:49;;;;;;;16.40;11.70;;;;;;;10.20;73.39;102731.41;5044998;28;20120;-58
2021/11/20 03:06:15;;;;;;;15.98;11.75;;;;;;;10.20;73.79;102726.13;5039773;28;20112;-56
2021/11/20 03:08:40;;;;;;;17.10;12.18;;;;;;;10.16;73.94;102727.16;5043939;28;20470;-57
2021/11/20 03:11:06;;;;;;;16.77;11.55;;;;;;;10.18;73.67;102717.38;5046973;28;20040;-57
2021/11/20 03:13:31;;;;;;;16.42;10.98;;;;;;;10.13;74.27;102719.34;5040436;28;20034;-59
2021/11/20 03:15:57;;;;;;;17.30;12.13;;;;;;;10.09;73.99;102723.91;5045450;28;20041;-56
2021/11/20 03:18:22;;;;;;;17.70;10.70;;;;;;;10.09;73.88;102725.69;5039385;28;20916;-57
2021/11/20 03:20:48;;;;;;;14.45;11.10;;;;;;;10.11;73.55;102723.84;5043129;28;20094;-58
2021/11/20 03:23:28;;;;;;;14.65;10.30;;;;;;;10.11;73.19;102722.06;5041322;28;20033;-57
2021/11/20 03:25:53;;;;;;;15.85;10.98;;;;;;;10.13;73.36;102719.34;5045023;28;20037;-57
2021/11/20 03:28:19;;;;;;;13.05;9.98;;;;;;;10.17;72.86;102720.94;5040023;28;20089;-55
2021/11/20 03:30:45;;;;;;;13.95;10.07;;;;;;;10.15;73.22;102712.22;5040016;28;20469;-57
2021/11/20 03:33:11;;;;;;;12.90;9.98;;;;;;;10.11;73.42;102705.31;5045100;28;20045;-57
2021/11/20 03:35:37;;;;;;;14.95;10.55;;;;;;;10.11;73.60;102713.25;5042845;28;20094;-56
2021/11/20 03:38:02;;;;;;;14.02;10.00;;;;;;;10.15;73.38;102714.88;5041916;28;20029;-57
2021/11/20 03:40:28;;;;;;;14.15;10.80;;;;;;;10.13;73.07;102719.34;5039247;28;20048;-56
2021/11/20 03:42:54;;;;;;;16.15;10.13;;;;;;;10.18;72.84;102706.78;5041821;28;20040;-57
2021/11/20 03:45:21;;;;;;;14.13;10.48;;;;;;;10.18;73.22;102704.16;5040318;28;20028;-55
2021/11/20 03:47:47;;;;;;;14.23;10.63;;;;;;;10.15;73.03;102701.66;5042313;28;20025;-56
2021/11/20 03:50:13;;;;;;;14.88;11.30;;;;;;;10.12;73.25;102702.63;5037911;28;20374;-55
2021/11/20 03:52:40;;;;;;;14.18;11.23;;;;;;;10.10;73.73;102693.91;5041618;28;20512;-56
2021/11/20 03:55:07;;;;;;;16.33;11.02;;;;;;;10.12;73.48;102692.06;5040894;28;20039;-58
2021/11/20 03:57:32;;;;;;;14.88;10.55;;;;;;;10.16;72.52;102692.75;5039874;28;20494;-55
2021/11/20 03:59:58;;;;;;;14.05;10.00;;;;;;;10.18;73.29;102689.13;5041465;28;20025;-57
2021/11/20 04:02:23;;;;;;;13.43;10.98;;;;;;;10.13;72.77;102684.97;5036852;28;20032;-55
2021/11/20 04:04:49;;;;;;;14.88;11.07;;;;;;;10.11;72.73;102687.69;5038972;28;20163;-57
2021/11/20 04:07:14;;;;;;;15.88;11.85;;;;;;;10.12;73.55;102680.59;5041601;28;20036;-58
2021/11/20 04:09:40;;;;;;;14.98;11.45;;;;;;;10.01;73.96;102695.13;5037161;28;20118;-59
2021/11/20 04:12:06;;;;;;;14.23;11.52;;;;;;;10.08;73.20;102695.72;5039838;28;20378;-57
2021/11/20 04:14:32;;;;;;;15.63;12.65;;;;;;;10.10;73.08;102691.25;5041300;28;20032;-56
2021/11/20 04:16:57;;;;;;;14.43;11.15;;;;;;;10.04;73.12;102689.75;5039854;28;20435;-58
2021/11/20 04:19:23;;;;;;;15.27;11.70;;;;;;;10.11;73.50;102694.75;5036404;28;20037;-58
2021/11/20 04:21:49;;;;;;;16.38;13.10;;;;;;;10.10;72.77;102698.34;5036881;28;20045;-57
2021/11/20 04:24:15;;;;;;;14.45;11.68;;;;;;;10.07;72.95;102697.53;5040877;28;20043;-57
2021/11/20 04:26:41;;;;;;;16.83;12.80;;;;;;;10.10;72.64;102693.91;5041924;28;20078;-58
2021/11/20 04:29:06;;;;;;;16.55;13.63;;;;;;;10.11;72.12;102685.03;5045304;28;20113;-59
2021/11/20 04:31:32;;;;;;;17.10;12.68;;;;;;;10.11;72.64;102678.88;5037626;28;20436;-58
2021/11/20 04:33:58;;;;;;;17.15;13.13;;;;;;;10.08;72.92;102682.50;5036428;28;20040;-58
2021/11/20 04:36:24;;;;;;;17.60;14.20;;;;;;;10.04;73.07;102673.88;5038406;28;20044;-57
2021/11/20 04:38:50;;;;;;;16.77;13.68;;;;;;;10.02;72.93;102673.06;5040816;28;20524;-60
2021/11/20 04:41:16;;;;;;;15.93;13.73;;;;;;;10.00;73.16;102671.41;5035320;28;20121;-57
2021/11/20 04:43:43;;;;;;;16.80;13.18;;;;;;;10.03;72.42;102669.50;5041359;28;20025;-57
2021/11/20 04:46:09;;;;;;;16.15;13.68;;;;;;;9.96;72.36;102675.13;5036216;28;20029;-58
2021/11/20 04:48:34;;;;;;;19.05;13.60;;;;;;;9.99;72.72;102675.84;5039606;28;20443;-56
2021/11/20 04:51:00;;;;;;;16.10;14.30;;;;;;;10.04;73.01;102679.16;5040396;28;20083;-56
2021/11/20 04:53:26;;;;;;;16.10;13.85;;;;;;;10.05;72.48;102674.72;5039488;28;20044;-60
2021/11/20 04:55:53;;;;;;;18.05;14.25;;;;;;;9.98;73.15;102682.06;5036123;28;20061;-57
2021/11/20 04:58:19;;;;;;;16.30;14.48;;;;;;;10.01;72.62;102679.28;5041799;28;20048;-57
2021/11/20 05:00:48;;;;;;;18.00;15.05;;;;;;;10.00;73.05;102679.34;5037643;28;20457;-56
2021/11/20 05:03:14;;;;;;;17.60;15.45;;;;;;;9.99;72.72;102678.50;5044746;28;20056;-56
2021/11/20 05:05:43;;;;;;;18.88;16.30;;;;;;;9.94;72.70;102677.84;5037854;28;20442;-55
2021/11/20 05:08:08;;;;;;;21.75;16.35;;;;;;;9.99;72.70;102673.22;5043397;28;20378;-56
2021/11/20 05:10:35;;;;;;;22.88;17.42;;;;;;;10.01;73.24;102667.84;5040297;28;20038;-56
2021/11/20 05:13:01;;;;;;;20.55;17.48;;;;;;;10.03;73.02;102674.78;5036168;28;20028;-55
2021/11/20 05:15:28;;;;;;;23.02;18.25;;;;;;;9.99;73.61;102681.16;5037196;28;20446;-56
2021/11/20 05:17:53;;;;;;;22.92;18.08;;;;;;;9.95;73.33;102665.47;5037264;28;20044;-56
2021/11/20 05:20:19;;;;;;;23.35;18.85;;;;;;;10.01;73.43;102660.75;5043921;28;20026;-56
2021/11/20 05:22:45;;;;;;;24.92;19.02;;;;;;;9.99;72.92;102662.63;5043357;28;20052;-58
2021/11/20 05:25:11;;;;;;;23.02;19.27;;;;;;;10.00;73.20;102656.41;5039356;28;20037;-57
2021/11/20 05:27:37;;;;;;;26.50;20.65;;;;;;;9.98;73.08;102652.09;5039250;28;20079;-59
2021/11/20 05:30:08;;;;;;;28.05;20.02;;;;;;;9.96;73.65;102651.31;5040325;28;20068;-58
2021/11/20 05:32:34;;;;;;;25.73;18.88;;;;;;;9.91;73.55;102646.22;5040949;28;20035;-58
2021/11/20 05:34:59;;;;;;;28.85;21.85;;;;;;;9.91;73.40;102651.50;5041583;28;20103;-58
2021/11/20 05:37:25;;;;;;;25.00;21.55;;;;;;;9.84;73.83;102639.50;5045999;28;20415;-57
2021/11/20 05:39:51;;;;;;;24.48;19.77;;;;;;;9.89;73.62;102634.88;5036155;28;20033;-58
2021/11/20 05:42:16;;;;;;;25.45;19.95;;;;;;;9.86;73.20;102633.22;5040016;28;20098;-58
2021/11/20 05:44:42;;;;;;;27.15;22.25;;;;;;;9.88;73.01;102635.78;5041330;28;20037;-58
2021/11/20 05:47:08;;;;;;;26.40;21.73;;;;;;;9.87;73.61;102621.72;5040085;28;20451;-60
2021/11/20 05:49:36;;;;;;;27.33;22.17;;;;;;;9.82;73.05;102622.81;5036886;28;20033;-57
2021/11/20 05:52:03;;;;;;;26.65;21.95;;;;;;;9.84;73.31;102623.63;5036288;28;20529;-57
2021/11/20 05:54:28;;;;;;;27.70;21.98;;;;;;;9.85;73.20;102628.00;5039771;28;20051;-58
2021/11/20 05:56:54;;;;;;;27.10;22.17;;;;;;;9.82;73.34;102625.47;5039632;28;20477;-58
2021/11/20 05:59:20;;;;;;;28.40;22.33;;;;;;;9.79;74.32;102625.59;5038013;28;20465;-58
2021/11/20 06:01:46;;;;;;;27.45;22.95;;;;;;;9.75;73.54;102619.59;5038056;28;20040;-57
2021/11/20 06:04:13;;;;;;;28.48;24.65;;;;;;;9.76;74.25;102613.38;5037312;28;20029;-57
2021/11/20 06:06:38;;;;;;;27.05;22.20;;;;;;;9.79;73.56;102615.03;5036886;28;20030;-58
2021/11/20 06:09:04;;;;;;;28.88;23.13;;;;;;;9.75;73.44;102602.88;5042659;28;20044;-59
2021/11/20 06:11:29;;;;;;;28.40;23.27;;;;;;;9.75;73.70;102602.88;5036599;28;20025;-58
2021/11/20 06:13:54;;;;;;;31.63;23.35;;;;;;;9.71;73.90;102596.88;5041602;28;20034;-56
2021/11/20 06:16:20;;;;;;;25.00;20.25;;;;;;;9.70;74.04;102588.06;5038114;28;20473;-56
2021/11/20 06:18:45;;;;;;;29.70;22.33;;;;;;;9.72;73.66;102596.78;5040657;28;20087;-56
2021/11/20 06:21:11;;;;;;;26.65;20.48;;;;;;;9.76;73.43;102596.66;5039569;28;20034;-58
2021/11/20 06:23:38;;;;;;;24.00;20.25;;;;;;;9.68;73.19;102592.56;5034952;28;20036;-60
2021/11/20 06:26:05;;;;;;;24.83;20.60;;;;;;;9.75;73.49;102598.44;5039344;28;20033;-57
2021/11/20 06:28:31;;;;;;;26.50;21.33;;;;;;;9.63;73.54;102586.63;5035995;28;20034;-59
2021/11/20 06:30:58;;;;;;;25.13;21.50;;;;;;;9.67;73.56;102582.91;5039950;28;20053;-60
2021/11/20 06:33:24;;;;;;;25.60;21.27;;;;;;;9.67;73.41;102588.19;5040625;28;20038;-57
2021/11/20 06:35:49;;;;;;;24.98;20.15;;;;;;;9.69;73.83;102594.28;5036137;28;20029;-58
2021/11/20 06:38:14;;;;;;;27.63;21.92;;;;;;;9.70;73.70;102585.41;5043380;28;20037;-58
2021/11/20 06:40:44;;;;;;;29.10;23.17;;;;;;;9.65;74.05;102590.03;5040022;28;20029;-56
2021/11/20 06:43:13;;;;;;;28.30;23.48;;;;;;;9.65;73.55;102590.03;5035124;28;20033;-56
2021/11/20 06:45:41;;;;;;;26.23;21.83;;;;;;;9.70;73.63;102590.69;5039337;28;20036;-58
2021/11/20 06:48:07;;;;;;;28.63;22.65;;;;;;;9.68;73.58;102595.22;5036626;28;20063;-58
2021/11/20 06:50:34;;;;;;;28.23;22.83;;;;;;;9.71;73.27;102591.56;5042730;28;20072;-58
2021/11/20 06:53:02;;;;;;;28.90;23.52;;;;;;;9.70;73.71;102592.50;5037189;28;20030;-58
2021/11/20 06:55:30;;;;;;;26.27;21.33;;;;;;;9.68;73.61;102603.13;5035707;28;20525;-57
2021/11/20 06:57:58;;;;;;;24.67;20.67;;;;;;;9.70;73.50;102595.97;5034972;28;20036;-57
2021/11/20 07:00:27;;;;;;;27.67;21.55;;;;;;;9.67;73.38;102590.84;5045585;28;20033;-57
2021/11/20 07:02:56;;;;;;;27.08;22.08;;;;;;;9.72;73.71;102593.31;5039609;28;20045;-57
2021/11/20 07:05:21;;;;;;;25.98;21.08;;;;;;;9.72;73.63;102588.84;5047973;28;20026;-59
2021/11/20 07:07:47;;;;;;;29.60;20.88;;;;;;;9.77;73.97;102582.50;5040318;28;20036;-60
2021/11/20 07:10:16;;;;;;;30.27;22.92;;;;;;;9.71;73.38;102584.50;5038148;28;20486;-59
2021/11/20 07:12:43;;;;;;;28.27;21.55;;;;;;;9.70;74.26;102584.56;5041054;28;20124;-59
2021/11/20 07:15:11;;;;;;;27.45;21.05;;;;;;;9.70;73.31;102585.41;5039432;28;20037;-59
2021/11/20 07:17:36;;;;;;;26.52;20.48;;;;;;;9.74;74.13;102580.84;5038790;28;20033;-58
2021/11/20 07:20:03;;;;;;;26.20;21.08;;;;;;;9.75;73.57;102582.59;5042509;28;20511;-58
2021/11/20 07:22:29;;;;;;;30.90;21.25;;;;;;;9.72;73.16;102586.22;5038881;28;20029;-61
2021/11/20 07:24:54;;;;;;;28.98;21.45;;;;;;;9.72;74.10;102575.66;5042092;28;20039;-58
2021/11/20 07:27:20;;;;;;;31.75;22.75;;;;;;;9.71;74.02;102581.00;5045357;28;20029;-60
2021/11/20 07:29:45;;;;;;;28.33;21.80;;;;;;;9.64;74.01;102577.78;5039926;28;20121;-56
2021/11/20 07:32:11;;;;;;;27.40;22.17;;;;;;;9.64;74.37;102571.59;5042701;28;20125;-57
2021/11/20 07:34:36;;;;;;;26.10;20.55;;;;;;;9.63;74.39;102565.47;5038023;28;20029;-57
2021/11/20 07:37:03;;;;;;;23.92;19.38;;;;;;;9.69;74.03;102562.56;5047038;28;20393;-58
2021/11/20 07:39:28;;;;;;;25.27;19.63;;;;;;;9.71;74.22;102559.84;5038682;28;20057;-59
2021/11/20 07:41:53;;;;;;;25.83;19.98;;;;;;;9.71;74.59;102559.84;5039188;28;20538;-55
2021/11/20 07:44:19;;;;;;;26.83;20.27;;;;;;;9.71;74.23;102551.94;5041232;28;20120;-52
2021/11/20 07:46:44;;;;;;;25.98;19.77;;;;;;;9.66;74.36;102562.69;5039873;28;20367;-58
2021/11/20 07:49:10;;;;;;;25.65;20.05;;;;;;;9.79;73.49;102567.47;5038935;28;20124;-56
2021/11/20 07:51:35;;;;;;;26.80;20.67;;;;;;;9.77;74.21;102569.28;5039091;28;20052;-59
2021/11/20 07:54:00;;;;;;;25.48;19.30;;;;;;;9.78;74.18;102566.59;5042113;28;20029;-58
2021/11/20 07:56:27;;;;;;;28.45;20.20;;;;;;;9.70;74.51;102566.91;5036324;28;20041;-61
2021/11/20 07:58:54;;;;;;;25.98;20.77;;;;;;;9.70;74.31;102558.13;5038048;28;20072;-60
2021/11/20 08:01:19;;;;;;;25.92;20.00;;;;;;;9.74;74.11;102557.06;5038347;28;20099;-60
2021/11/20 08:03:45;;;;;;;29.70;21.15;;;;;;;9.73;74.10;102556.22;5036509;28;20037;-59
2021/11/20 08:06:10;;;;;;;26.45;20.83;;;;;;;9.82;73.35;102554.09;5035620;28;20028;-59
2021/11/20 08:08:36;;;;;;;22.95;18.08;;;;;;;9.82;73.72;102548.81;5036082;28;20160;-59
2021/11/20 08:11:02;;;;;;;31.38;21.60;;;;;;;9.77;74.23;102542.88;5035100;28;20504;-60
2021/11/20 08:13:27;;;;;;;27.90;21.08;;;;;;;9.80;74.35;102554.16;5039691;28;20160;-59
2021/11/20 08:15:52;;;;;;;26.55;20.98;;;;;;;9.81;73.83;102537.38;5037711;28;20037;-59
2021/11/20 08:18:18;;;;;;;28.75;21.20;;;;;;;9.79;73.89;102530.44;5036255;28;20052;-60
2021/11/20 08:20:46;;;;;;;26.25;20.60;;;;;;;9.79;74.84;102530.44;5036563;28;20032;-60
2021/11/20 08:23:13;;;;;;;25.70;21.08;;;;;;;9.83;74.31;102530.22;5041411;28;20458;-60
2021/11/20 08:25:44;;;;;;;27.15;21.75;;;;;;;9.82;74.27;102525.91;5040138;28;20033;-58
2021/11/20 08:28:12;;;;;;;28.95;21.80;;;;;;;9.88;74.91;102522.97;5035597;28;20037;-57
2021/11/20 08:30:37;;;;;;;31.55;23.30;;;;;;;9.95;74.28;102515.59;5037388;28;20378;-58
2021/11/20 08:33:03;;;;;;;28.55;22.10;;;;;;;9.96;74.48;102517.31;5034215;28;20041;-61
2021/11/20 08:35:29;;;;;;;29.88;22.95;;;;;;;9.96;74.43;102517.31;5035228;28;20091;-60
2021/11/20 08:37:56;;;;;;;31.38;23.75;;;;;;;9.99;74.83;102508.41;5039814;28;21012;-59
2021/11/20 08:40:27;;;;;;;33.97;25.58;;;;;;;9.94;74.89;102507.75;5036718;28;20017;-59
2021/11/20 08:42:52;;;;;;;35.35;25.50;;;;;;;9.92;74.72;102521.03;5034534;28;20458;-60
2021/11/20 08:45:21;;;;;;;35.72;25.30;;;;;;;9.95;74.65;102520.06;5038697;28;20116;-58
2021/11/20 08:47:49;;;;;;;40.53;26.50;;;;;;;9.96;75.11;102514.69;5037286;28;20045;-58
2021/11/20 08:50:20;;;;;;;34.70;25.90;;;;;;;9.95;75.29;102499.75;5034809;28;20433;-58
2021/11/20 08:52:45;;;;;;;36.53;26.20;;;;;;;9.95;74.95;102502.38;5037830;28;20425;-59
2021/11/20 08:55:13;;;;;;;36.92;27.13;;;;;;;9.97;74.98;102503.19;5035893;28;20053;-61
2021/11/20 08:57:38;;;;;;;36.30;26.25;;;;;;;10.09;75.04;102504.41;5037411;28;20076;-59
2021/11/20 09:00:15;;;;;;;35.97;26.83;;;;;;;10.02;74.72;102500.34;5038133;28;20061;-58
2021/11/20 09:02:49;;;;;;;37.28;26.95;;;;;;;9.93;75.34;102500.75;5035201;28;20030;-60
2021/11/20 09:05:41;;;;;;;38.95;27.98;;;;;;;9.95;75.62;102499.75;5039013;28;20112;-59
2021/11/20 09:08:24;;;;;;;38.38;26.80;;;;;;;9.96;75.44;102506.75;5033458;28;20049;-60
2021/11/20 09:10:57;;;;;;;38.17;26.98;;;;;;;10.01;75.48;102493.34;5039130;28;20029;-60
2021/11/20 09:13:30;;;;;;;37.90;26.88;;;;;;;9.97;75.98;102486.47;5034052;28;20405;-60
2021/11/20 09:16:01;;;;;;;39.38;28.35;;;;;;;10.07;75.84;102480.69;5034575;28;20037;-61
2021/11/20 09:18:28;;;;;;;38.17;27.25;;;;;;;10.11;75.39;102480.53;5038060;28;20243;-60
2021/11/20 09:20:55;;;;;;;40.53;28.17;;;;;;;10.07;75.28;102479.84;5034557;28;20404;-59
2021/11/20 09:23:20;;;;;;;43.20;29.52;;;;;;;10.07;75.73;102483.34;5035651;28;20378;-58
2021/11/20 09:25:46;;;;;;;44.63;29.45;;;;;;;10.07;75.55;102480.69;5032594;28;20029;-58
2021/11/20 09:28:13;;;;;;;38.28;26.85;;;;;;;10.13;75.25;102476.03;5034963;28;20033;-56
2021/11/20 09:30:42;;;;;;;38.75;27.73;;;;;;;10.18;75.01;102468.75;5036439;28;20552;-57
2021/11/20 09:33:08;;;;;;;36.83;26.52;;;;;;;10.13;75.22;102476.03;5033611;28;20112;-56
2021/11/20 09:35:34;;;;;;;39.60;28.20;;;;;;;10.05;75.79;102471.97;5035037;28;20160;-59
2021/11/20 09:37:59;;;;;;;36.67;27.08;;;;;;;10.03;75.94;102476.47;5037986;28;20036;-59
2021/11/20 09:40:28;;;;;;;41.80;29.90;;;;;;;10.01;76.16;102477.47;5034965;28;20025;-59
2021/11/20 09:42:55;;;;;;;38.17;26.98;;;;;;;10.06;75.45;102480.75;5032307;28;20064;-57
2021/11/20 09:45:27;;;;;;;37.25;26.60;;;;;;;10.03;76.75;102478.25;5053307;28;20527;-60
2021/11/20 09:48:18;;;;;;;40.05;27.05;;;;;;;10.06;76.11;102486.91;5038245;28;20041;-59
2021/11/20 09:50:59;;;;;;;41.13;26.20;;;;;;;10.06;75.82;102475.47;5033745;28;20041;-59
2021/11/20 09:53:24;;;;;;;38.33;26.67;;;;;;;10.04;75.85;102475.56;5035641;28;20037;-59
2021/11/20 09:55:52;;;;;;;40.70;27.17;;;;;;;10.07;76.35;102475.41;5033157;28;20033;-60
2021/11/20 09:58:23;;;;;;;35.47;24.52;;;;;;;10.08;76.29;102468.31;5035536;28;20458;-60
2021/11/20 10:01:02;;;;;;;37.35;26.02;;;;;;;10.09;76.57;102474.47;5032689;28;20037;-60
2021/11/20 10:03:37;;;;;;;36.78;25.33;;;;;;;10.14;76.23;102467.19;5033175;28;20049;-59
2021/11/20 10:06:12;;;;;;;35.60;25.08;;;;;;;10.11;76.33;102468.19;5031960;28;20033;-59
2021/11/20 10:08:43;;;;;;;30.85;24.63;;;;;;;10.09;76.55;102472.69;5031937;28;20489;-58
2021/11/20 10:11:08;;;;;;;34.17;24.33;;;;;;;10.20;75.74;102448.41;5035015;28;20112;-58
2021/11/20 10:13:52;;;;;;;34.67;25.13;;;;;;;10.16;75.79;102454.72;5034346;28;20067;-59
2021/11/20 10:16:24;;;;;;;32.63;24.42;;;;;;;10.20;75.43;102448.41;5041163;28;20079;-59
2021/11/20 10:19:10;;;;;;;35.30;25.63;;;;;;;10.29;75.56;102447.97;5038701;28;20041;-60
2021/11/20 10:21:40;;;;;;;32.97;24.35;;;;;;;10.27;75.81;102447.16;5037480;28;20036;-59
2021/11/20 10:24:27;;;;;;;29.10;23.23;;;;;;;10.27;75.99;102444.50;5033412;28;20028;-59
2021/11/20 10:27:03;;;;;;;32.55;25.55;;;;;;;10.29;75.85;102447.97;5031869;28;20044;-60
2021/11/20 10:30:04;;;;;;;34.95;26.08;;;;;;;10.28;75.70;102443.59;5029686;28;20044;-58
2021/11/20 10:32:42;;;;;;;32.22;24.48;;;;;;;10.29;75.60;102450.59;5031243;28;20029;-57
2021/11/20 10:35:24;;;;;;;37.45;25.35;;;;;;;10.29;75.43;102447.97;5035321;28;20048;-59
2021/11/20 10:37:55;;;;;;;31.80;25.55;;;;;;;10.30;75.53;102444.38;5035158;28;20111;-60
2021/11/20 10:40:26;;;;;;;30.15;23.80;;;;;;;10.27;75.90;102447.16;5037045;28;20044;-58
2021/11/20 10:43:00;;;;;;;29.48;23.20;;;;;;;10.28;75.68;102442.75;5043327;28;20132;-59
2021/11/20 10:45:35;;;;;;;37.17;26.13;;;;;;;10.25;76.41;102442.88;5043453;28;20026;-59
2021/11/20 10:48:29;;;;;;;34.95;25.80;;;;;;;10.34;76.13;102447.72;5037221;28;20059;-56
2021/11/20 10:51:11;;;;;;;37.78;26.95;;;;;;;10.24;76.30;102431.44;5037863;28;20029;-58
2021/11/20 10:54:17;;;;;;;41.08;28.70;;;;;;;10.25;76.46;102438.47;5038984;28;20035;-60
2021/11/20 10:56:45;;;;;;;37.13;27.90;;;;;;;10.25;76.20;102425.25;5042058;28;20116;-64
2021/11/20 10:59:32;;;;;;;38.47;27.00;;;;;;;10.22;76.21;102417.44;5045607;28;20032;-57
2021/11/20 11:02:00;;;;;;;34.17;25.50;;;;;;;10.23;76.74;102429.72;5037873;28;20021;-58
2021/11/20 11:04:31;;;;;;;39.70;28.05;;;;;;;10.23;76.66;102413.84;5039732;28;20104;-58
2021/11/20 11:07:23;;;;;;;37.28;28.27;;;;;;;10.19;76.79;102413.13;5041400;28;20187;-59
2021/11/20 11:09:53;;;;;;;37.25;27.90;;;;;;;10.26;76.70;102400.47;5037858;28;20044;-59
2021/11/20 11:12:41;;;;;;;35.08;27.40;;;;;;;10.25;76.75;102400.56;5044901;28;20456;-59
2021/11/20 11:15:12;;;;;;;36.38;27.55;;;;;;;10.21;77.16;102390.13;5022043;28;20034;-59
2021/11/20 11:18:06;;;;;;;38.80;27.45;;;;;;;10.22;76.65;102390.97;5044982;28;20103;-59
2021/11/20 11:21:03;;;;;;;36.40;27.02;;;;;;;10.25;76.46;102380.28;5036089;28;20029;-55
2021/11/20 11:23:39;;;;;;;32.67;24.27;;;;;;;10.27;76.75;102382.84;5042818;28;20029;-60